Time;durP1;ratioP1;P1;durP2;ratioP2;P2;SDS_P1;SDS_P2;PMS_P1;PMS_P2;Temp;Humidity;BMP_temperature;BMP_pressure;BME280_temperature;BME280_humidity;BME280_pressure;Samples;Min_cycle;Max_cycle;Signal;HPM_P1;HPM_P2
2024/02/14 00:00:59;;;;;;;3.78;2.15;;;8.20;99.90;;;;;;4925793;28;20063;-81
2024/02/14 00:03:27;;;;;;;2.28;1.83;;;8.20;99.90;;;;;;4916592;28;20043;-80
2024/02/14 00:05:57;;;;;;;2.92;1.73;;;8.30;99.90;;;;;;4916391;28;20597;-78
2024/02/14 00:08:25;;;;;;;6.68;2.20;;;8.30;99.90;;;;;;4919723;28;20474;-80
2024/02/14 00:10:51;;;;;;;4.82;1.75;;;8.30;99.90;;;;;;4942988;28;20409;-80
2024/02/14 00:13:18;;;;;;;3.95;2.00;;;8.30;99.90;;;;;;4924792;28;20038;-80
2024/02/14 00:15:47;;;;;;;2.05;1.20;;;8.30;99.90;;;;;;4914074;28;20023;-79
2024/02/14 00:18:13;;;;;;;1.60;0.80;;;8.40;99.90;;;;;;4907610;28;20040;-80
2024/02/14 00:20:39;;;;;;;4.60;1.42;;;8.20;99.90;;;;;;4926898;28;20114;-81
2024/02/14 00:23:04;;;;;;;3.20;1.30;;;8.30;99.90;;;;;;4908438;28;20106;-79
2024/02/14 00:25:30;;;;;;;6.28;2.08;;;8.30;99.90;;;;;;4914777;28;20046;-79
2024/02/14 00:27:56;;;;;;;4.63;1.95;;;8.30;99.90;;;;;;4909253;28;20035;-79
2024/02/14 00:30:23;;;;;;;1.42;0.60;;;8.20;99.90;;;;;;4939382;28;20514;-80
2024/02/14 00:32:48;;;;;;;4.50;1.90;;;8.20;99.90;;;;;;4929255;28;20039;-80
2024/02/14 00:35:15;;;;;;;7.80;1.50;;;8.20;99.90;;;;;;4923098;28;20031;-79
2024/02/14 00:37:41;;;;;;;3.33;1.88;;;8.20;99.90;;;;;;4900679;28;20055;-79
2024/02/14 00:40:07;;;;;;;3.40;1.60;;;8.20;99.90;;;;;;4925212;28;20066;-79
2024/02/14 00:42:33;;;;;;;4.95;1.60;;;8.20;99.90;;;;;;4939846;28;20506;-79
2024/02/14 00:44:59;;;;;;;3.38;1.73;;;8.10;99.90;;;;;;4939802;28;20523;-80
2024/02/14 00:47:24;;;;;;;2.80;1.10;;;8.10;99.90;;;;;;4907956;28;20035;-80
2024/02/14 00:49:50;;;;;;;3.70;2.00;;;8.10;99.90;;;;;;4938341;28;20039;-79
2024/02/14 00:52:16;;;;;;;2.22;1.50;;;8.10;99.90;;;;;;4908741;28;20040;-79
2024/02/14 00:54:43;;;;;;;4.90;1.50;;;8.10;99.90;;;;;;4923477;28;21948;-80
2024/02/14 00:57:09;;;;;;;4.40;1.90;;;8.10;99.90;;;;;;4880109;29;20042;-78
2024/02/14 00:59:35;;;;;;;4.60;1.40;;;8.10;99.90;;;;;;4913306;28;20043;-79
2024/02/14 01:02:00;;;;;;;4.45;2.00;;;8.00;99.90;;;;;;4921556;28;20672;-79
2024/02/14 01:04:26;;;;;;;3.30;1.60;;;8.00;99.90;;;;;;4888346;29;20036;-79
2024/02/14 01:06:51;;;;;;;4.28;1.77;;;8.00;99.90;;;;;;4902325;29;20823;-79
2024/02/14 01:09:18;;;;;;;4.55;1.70;;;8.00;99.90;;;;;;4921237;28;20055;-79
2024/02/14 01:11:44;;;;;;;1.67;1.20;;;8.00;99.90;;;;;;4917716;28;20028;-79
2024/02/14 01:14:10;;;;;;;5.43;1.50;;;7.90;99.90;;;;;;4924692;28;20027;-78
2024/02/14 01:16:42;;;;;;;3.63;1.48;;;7.90;99.90;;;;;;4939568;28;20473;-78
2024/02/14 01:19:08;;;;;;;6.07;1.88;;;7.90;99.90;;;;;;4898514;28;20679;-79
2024/02/14 01:21:33;;;;;;;2.65;1.70;;;7.90;99.90;;;;;;4907973;29;20036;-78
2024/02/14 01:23:59;;;;;;;3.13;1.80;;;7.90;99.90;;;;;;4901419;29;20550;-78
2024/02/14 01:26:24;;;;;;;5.97;1.73;;;7.80;99.90;;;;;;4903698;29;20058;-79
2024/02/14 01:28:50;;;;;;;4.43;1.77;;;7.80;99.90;;;;;;4907336;28;20043;-79
2024/02/14 01:31:16;;;;;;;4.20;1.45;;;7.90;99.90;;;;;;4894351;28;20032;-78
2024/02/14 01:33:41;;;;;;;3.63;1.75;;;7.80;99.90;;;;;;4916056;29;20040;-78
2024/02/14 01:36:07;;;;;;;1.60;1.25;;;7.70;99.90;;;;;;4893099;28;20053;-78
2024/02/14 01:38:35;;;;;;;5.63;1.80;;;7.80;99.90;;;;;;4905191;28;20098;-79
2024/02/14 01:41:02;;;;;;;4.82;1.60;;;7.70;99.90;;;;;;4905701;28;20401;-79
2024/02/14 01:43:29;;;;;;;2.47;1.17;;;7.80;99.90;;;;;;4909022;28;20023;-78
2024/02/14 01:45:57;;;;;;;2.30;1.40;;;7.80;99.90;;;;;;4937286;28;20501;-79
2024/02/14 01:48:23;;;;;;;4.95;1.27;;;7.80;99.90;;;;;;4907154;28;20050;-79
2024/02/14 01:50:48;;;;;;;4.07;1.20;;;7.80;99.90;;;;;;4922310;28;20031;-77
2024/02/14 01:53:14;;;;;;;5.20;1.60;;;7.80;99.90;;;;;;4908738;28;20114;-78
2024/02/14 01:55:40;;;;;;;1.45;0.80;;;7.80;99.90;;;;;;4920580;28;20035;-78
2024/02/14 01:58:06;;;;;;;2.83;1.27;;;7.80;99.90;;;;;;4905183;28;20044;-78
2024/02/14 02:00:32;;;;;;;4.78;1.23;;;7.80;99.90;;;;;;4906148;28;20028;-78
2024/02/14 02:02:58;;;;;;;2.80;1.70;;;7.80;99.90;;;;;;4920954;28;20529;-78
2024/02/14 02:05:24;;;;;;;2.95;1.52;;;7.80;99.90;;;;;;4908265;28;20044;-78
2024/02/14 02:07:50;;;;;;;3.85;1.40;;;7.80;99.90;;;;;;4919262;28;20038;-78
2024/02/14 02:10:16;;;;;;;9.73;1.70;;;7.80;99.90;;;;;;4904073;28;20047;-79
2024/02/14 02:12:42;;;;;;;5.13;1.67;;;7.80;99.90;;;;;;4919381;28;20047;-78
2024/02/14 02:15:14;;;;;;;4.72;1.77;;;7.80;99.90;;;;;;4921503;28;20238;-78
2024/02/14 02:17:40;;;;;;;3.25;1.42;;;7.80;99.90;;;;;;4921417;28;20039;-79
2024/02/14 02:20:09;;;;;;;1.90;0.82;;;7.90;99.90;;;;;;4890565;29;20426;-78
2024/02/14 02:22:37;;;;;;;1.88;1.08;;;7.80;99.90;;;;;;4917139;28;20047;-78
2024/02/14 02:25:06;;;;;;;2.28;1.20;;;7.90;99.90;;;;;;4901015;28;20047;-78
2024/02/14 02:27:35;;;;;;;3.40;1.80;;;7.80;99.90;;;;;;4892120;28;20032;-78
2024/02/14 02:30:01;;;;;;;5.63;1.73;;;7.90;99.90;;;;;;4902848;29;20532;-79
2024/02/14 02:32:26;;;;;;;4.03;1.67;;;7.90;99.90;;;;;;4890825;28;20032;-78
2024/02/14 02:34:53;;;;;;;3.88;1.63;;;7.90;99.90;;;;;;4893947;28;20034;-79
2024/02/14 02:37:19;;;;;;;2.35;1.40;;;7.90;99.90;;;;;;4909972;28;20408;-79
2024/02/14 02:39:44;;;;;;;1.88;1.00;;;8.00;99.90;;;;;;4918665;28;20043;-78
2024/02/14 02:42:10;;;;;;;2.97;1.83;;;8.00;99.90;;;;;;4934769;28;20039;-78
2024/02/14 02:44:37;;;;;;;1.92;1.38;;;8.00;99.90;;;;;;4925524;28;20402;-79
2024/02/14 02:47:03;;;;;;;3.33;1.30;;;8.00;99.90;;;;;;4902495;28;20047;-78
2024/02/14 02:49:29;;;;;;;0.98;0.43;;;8.00;99.90;;;;;;4922268;28;20032;-79
2024/02/14 02:51:55;;;;;;;3.00;1.40;;;8.20;99.90;;;;;;4923272;28;20405;-79
2024/02/14 02:54:23;;;;;;;5.72;0.90;;;8.00;99.90;;;;;;4921288;28;20046;-78
2024/02/14 02:56:49;;;;;;;0.90;0.65;;;8.20;99.90;;;;;;4933833;28;20091;-79
2024/02/14 02:59:16;;;;;;;3.85;1.50;;;8.10;99.90;;;;;;4904458;28;20452;-78
2024/02/14 03:01:42;;;;;;;5.85;1.60;;;8.10;99.90;;;;;;4923107;28;20047;-79
2024/02/14 03:04:08;;;;;;;3.15;1.33;;;8.10;99.90;;;;;;4923731;28;20032;-78
2024/02/14 03:06:33;;;;;;;1.35;0.88;;;8.20;99.90;;;;;;4926024;28;20039;-78
2024/02/14 03:08:59;;;;;;;6.20;1.65;;;8.20;99.90;;;;;;4924309;28;20035;-79
2024/02/14 03:11:27;;;;;;;3.50;1.10;;;8.20;99.90;;;;;;4923649;28;20039;-79
2024/02/14 03:13:53;;;;;;;1.67;1.05;;;8.20;99.90;;;;;;4910002;28;20536;-79
2024/02/14 03:16:18;;;;;;;2.80;1.23;;;8.20;99.90;;;;;;4928257;28;20035;-78
2024/02/14 03:18:44;;;;;;;5.85;1.08;;;8.30;99.90;;;;;;4922412;28;20051;-78
2024/02/14 03:21:11;;;;;;;2.13;1.20;;;8.20;99.90;;;;;;4911839;28;20067;-78
2024/02/14 03:23:37;;;;;;;3.35;0.98;;;8.20;99.90;;;;;;4910326;28;20106;-79
2024/02/14 03:26:07;;;;;;;0.82;0.68;;;8.20;99.90;;;;;;4922538;28;20118;-79
2024/02/14 03:28:33;;;;;;;2.60;1.00;;;8.30;99.90;;;;;;4912108;28;20155;-78
2024/02/14 03:30:59;;;;;;;3.75;1.27;;;8.30;99.90;;;;;;4925723;28;20881;-79
2024/02/14 03:33:24;;;;;;;5.57;1.55;;;8.30;99.90;;;;;;4908176;28;20031;-79
2024/02/14 03:35:50;;;;;;;6.55;1.55;;;8.30;99.90;;;;;;4942875;28;20043;-79
2024/02/14 03:38:27;;;;;;;8.32;0.93;;;8.30;99.90;;;;;;4926896;28;20031;-79
2024/02/14 03:40:54;;;;;;;3.00;0.40;;;8.30;99.90;;;;;;4923679;28;20045;-78
2024/02/14 03:43:19;;;;;;;3.42;0.88;;;8.30;99.90;;;;;;4907930;28;20042;-78
2024/02/14 03:45:46;;;;;;;5.93;1.27;;;8.30;99.90;;;;;;4909294;28;20285;-78
2024/02/14 03:48:12;;;;;;;6.80;1.73;;;8.30;99.90;;;;;;4908129;28;20038;-79
2024/02/14 03:50:40;;;;;;;2.72;0.70;;;8.30;99.90;;;;;;4906938;28;20032;-79
2024/02/14 03:53:06;;;;;;;2.65;1.15;;;8.30;99.90;;;;;;4924760;28;20027;-79
2024/02/14 03:55:31;;;;;;;3.10;0.70;;;8.30;99.90;;;;;;4926340;28;20485;-79
2024/02/14 03:57:57;;;;;;;2.05;1.00;;;8.30;99.90;;;;;;4926598;28;20044;-78
2024/02/14 04:00:22;;;;;;;4.80;0.98;;;8.30;99.90;;;;;;4909005;29;20043;-78
2024/02/14 04:02:49;;;;;;;6.22;1.20;;;8.30;99.90;;;;;;4941340;28;20047;-78
2024/02/14 04:05:14;;;;;;;2.55;1.38;;;8.40;99.90;;;;;;4906949;28;20139;-79
2024/02/14 04:07:40;;;;;;;3.80;1.50;;;8.30;99.90;;;;;;4923113;28;21061;-79
2024/02/14 04:10:06;;;;;;;3.65;1.30;;;8.30;99.90;;;;;;4923818;28;20394;-78
2024/02/14 04:12:32;;;;;;;1.85;1.30;;;8.30;99.90;;;;;;4936912;28;20066;-78
2024/02/14 04:14:57;;;;;;;1.92;1.17;;;8.30;99.90;;;;;;4905562;28;20163;-80
2024/02/14 04:17:24;;;;;;;0.65;0.65;;;8.40;99.90;;;;;;4922713;28;20048;-79
2024/02/14 04:19:50;;;;;;;1.33;0.88;;;8.40;99.90;;;;;;4914467;28;20497;-79
2024/02/14 04:22:15;;;;;;;3.60;1.13;;;8.40;99.90;;;;;;4941737;28;20047;-78
2024/02/14 04:24:41;;;;;;;3.15;1.92;;;8.40;99.90;;;;;;4923499;28;20032;-78
2024/02/14 04:27:06;;;;;;;3.08;0.88;;;8.40;99.90;;;;;;4908300;28;20088;-79
2024/02/14 04:29:33;;;;;;;1.20;0.82;;;8.40;99.90;;;;;;4942261;28;20563;-79
2024/02/14 04:32:02;;;;;;;1.15;0.75;;;8.40;99.90;;;;;;4908494;28;20382;-79
2024/02/14 04:34:28;;;;;;;3.63;1.27;;;8.40;99.90;;;;;;4912971;28;20053;-78
2024/02/14 04:36:53;;;;;;;2.78;1.10;;;8.30;99.90;;;;;;4918605;28;20046;-78
2024/02/14 04:39:19;;;;;;;1.33;0.82;;;8.40;99.90;;;;;;4926272;28;20043;-78
2024/02/14 04:41:44;;;;;;;1.90;1.48;;;8.40;99.90;;;;;;4899976;28;20039;-79
2024/02/14 04:44:10;;;;;;;4.68;0.95;;;8.40;99.90;;;;;;4941766;28;20039;-78
2024/02/14 04:46:37;;;;;;;1.85;1.02;;;8.40;99.90;;;;;;4924355;28;20046;-80
2024/02/14 04:49:03;;;;;;;2.80;1.55;;;8.50;99.90;;;;;;4910121;28;20046;-79
2024/02/14 04:51:31;;;;;;;1.33;1.05;;;8.50;99.90;;;;;;4941013;28;20039;-80
2024/02/14 04:54:05;;;;;;;4.82;2.10;;;8.50;99.90;;;;;;4922572;28;20050;-79
2024/02/14 04:56:31;;;;;;;3.13;1.83;;;8.50;99.90;;;;;;4924773;28;20027;-80
2024/02/14 04:58:57;;;;;;;2.72;2.00;;;8.50;99.90;;;;;;4922026;28;20326;-80
2024/02/14 05:01:23;;;;;;;2.80;1.58;;;8.50;99.90;;;;;;4908676;28;20047;-80
2024/02/14 05:03:49;;;;;;;1.95;0.60;;;8.60;99.90;;;;;;4939920;28;20031;-80
2024/02/14 05:06:15;;;;;;;1.15;0.88;;;8.50;99.90;;;;;;4909759;28;20066;-80
2024/02/14 05:08:40;;;;;;;4.47;1.50;;;8.50;99.90;;;;;;4912070;28;20051;-80
2024/02/14 05:11:06;;;;;;;2.47;1.40;;;8.60;99.90;;;;;;4922360;28;20039;-80
2024/02/14 05:13:32;;;;;;;2.38;1.33;;;8.60;99.90;;;;;;4925359;28;20493;-80
2024/02/14 05:15:58;;;;;;;1.20;1.05;;;8.50;99.90;;;;;;4908207;28;20070;-79
2024/02/14 05:18:23;;;;;;;1.02;0.75;;;8.50;99.90;;;;;;4898804;28;20043;-79
2024/02/14 05:20:49;;;;;;;1.17;0.60;;;8.60;99.90;;;;;;4926085;28;20561;-80
2024/02/14 05:23:17;;;;;;;1.75;1.17;;;8.70;99.90;;;;;;4926020;28;20032;-79
2024/02/14 05:25:43;;;;;;;2.10;1.17;;;8.70;99.90;;;;;;4920013;28;20039;-80
2024/02/14 05:28:13;;;;;;;1.25;0.85;;;8.70;99.90;;;;;;4918177;28;20543;-79
2024/02/14 05:30:39;;;;;;;3.47;2.00;;;8.70;99.90;;;;;;4936080;28;20481;-80
2024/02/14 05:33:05;;;;;;;3.88;1.38;;;8.80;99.90;;;;;;4917213;28;20127;-80
2024/02/14 05:35:30;;;;;;;1.13;1.02;;;8.80;99.90;;;;;;4939059;28;20126;-80
2024/02/14 05:37:56;;;;;;;4.95;1.77;;;8.80;99.90;;;;;;4908778;28;20064;-80
2024/02/14 05:40:21;;;;;;;2.40;1.58;;;8.80;99.90;;;;;;4909080;28;20388;-80
2024/02/14 05:42:47;;;;;;;3.20;1.27;;;8.80;99.90;;;;;;4936077;28;20035;-80
2024/02/14 05:45:13;;;;;;;3.13;1.50;;;8.90;99.90;;;;;;4923117;28;20031;-79
2024/02/14 05:47:39;;;;;;;1.98;1.73;;;8.80;99.90;;;;;;4905848;28;20397;-78
2024/02/14 05:50:05;;;;;;;2.60;1.35;;;8.80;99.90;;;;;;4910501;28;20031;-78
2024/02/14 05:52:31;;;;;;;1.90;1.27;;;8.80;99.90;;;;;;4923262;28;20090;-78
2024/02/14 05:54:56;;;;;;;2.20;1.27;;;8.80;99.90;;;;;;4917320;28;20031;-77
2024/02/14 05:57:22;;;;;;;2.47;1.23;;;8.90;99.90;;;;;;4920525;28;20046;-79
2024/02/14 05:59:48;;;;;;;3.03;1.88;;;8.90;99.90;;;;;;4921217;28;20043;-78
2024/02/14 06:02:14;;;;;;;0.82;0.68;;;8.90;99.90;;;;;;4922817;28;20046;-79
2024/02/14 06:04:39;;;;;;;3.47;1.80;;;8.90;99.90;;;;;;4904049;28;20491;-77
2024/02/14 06:07:06;;;;;;;1.77;1.65;;;8.90;99.90;;;;;;4924169;28;20038;-77
2024/02/14 06:09:32;;;;;;;2.40;1.85;;;9.00;99.90;;;;;;4918842;28;20224;-79
2024/02/14 06:11:57;;;;;;;3.15;1.63;;;9.00;99.90;;;;;;4915904;28;20032;-78
2024/02/14 06:14:23;;;;;;;3.38;1.83;;;9.00;99.90;;;;;;4905191;28;20311;-78
2024/02/14 06:16:49;;;;;;;2.30;0.68;;;9.00;99.90;;;;;;4917430;28;20035;-80
2024/02/14 06:19:14;;;;;;;3.58;1.73;;;9.00;99.90;;;;;;4921977;28;20035;-81
2024/02/14 06:21:40;;;;;;;2.47;1.38;;;8.90;99.90;;;;;;4905934;28;20031;-81
2024/02/14 06:24:06;;;;;;;5.00;1.85;;;9.00;99.90;;;;;;4904611;28;20569;-79
2024/02/14 06:26:33;;;;;;;6.10;1.38;;;9.00;99.90;;;;;;4909248;28;20054;-79
2024/02/14 06:28:58;;;;;;;4.32;2.10;;;9.00;99.90;;;;;;4923646;28;20122;-79
2024/02/14 06:31:24;;;;;;;2.45;1.15;;;9.00;99.90;;;;;;4940580;28;20123;-77
2024/02/14 06:33:49;;;;;;;3.72;2.55;;;9.10;99.90;;;;;;4924298;28;20468;-77
2024/02/14 06:36:15;;;;;;;3.58;1.90;;;9.00;99.90;;;;;;4905778;28;20036;-77
2024/02/14 06:38:41;;;;;;;3.90;2.65;;;9.10;99.90;;;;;;4921891;28;20076;-77
2024/02/14 06:41:06;;;;;;;2.00;1.42;;;9.10;99.90;;;;;;4916833;28;20536;-78
2024/02/14 06:43:33;;;;;;;3.25;1.85;;;9.10;99.90;;;;;;4918761;28;20032;-77
2024/02/14 06:45:58;;;;;;;4.25;2.00;;;9.10;99.90;;;;;;4937713;28;20038;-77
2024/02/14 06:48:24;;;;;;;5.63;2.33;;;9.20;99.90;;;;;;4917216;28;20440;-77
2024/02/14 06:50:51;;;;;;;3.63;2.03;;;9.10;99.90;;;;;;4908259;28;20147;-77
2024/02/14 06:53:17;;;;;;;1.55;1.23;;;9.10;99.90;;;;;;4923727;28;20472;-77
2024/02/14 06:55:43;;;;;;;2.45;1.50;;;9.10;99.90;;;;;;4920526;28;20027;-77
2024/02/14 06:58:08;;;;;;;2.47;1.48;;;9.10;99.90;;;;;;4935988;28;20519;-79
2024/02/14 07:00:34;;;;;;;6.78;2.88;;;9.20;99.90;;;;;;4919878;28;20449;-77
2024/02/14 07:03:01;;;;;;;5.63;2.92;;;9.20;99.90;;;;;;4924359;28;20114;-78
2024/02/14 07:05:29;;;;;;;6.30;3.03;;;9.20;99.90;;;;;;4924828;28;20417;-77
2024/02/14 07:07:55;;;;;;;6.07;2.53;;;9.20;99.90;;;;;;4908613;28;20054;-77
2024/02/14 07:10:20;;;;;;;3.90;2.33;;;9.20;99.90;;;;;;4923733;28;20039;-77
2024/02/14 07:12:46;;;;;;;2.25;1.65;;;9.20;99.90;;;;;;4921077;28;20095;-76
2024/02/14 07:15:12;;;;;;;5.78;2.45;;;9.20;99.90;;;;;;4918787;28;20040;-78
2024/02/14 07:17:40;;;;;;;4.38;2.47;;;9.10;99.90;;;;;;4905911;28;20040;-79
2024/02/14 07:20:09;;;;;;;2.83;1.73;;;9.20;99.90;;;;;;4941865;28;20499;-79
2024/02/14 07:22:38;;;;;;;2.00;1.80;;;9.20;99.90;;;;;;4931002;28;20050;-79
2024/02/14 07:25:04;;;;;;;11.20;2.97;;;9.20;99.90;;;;;;4918631;28;20038;-76
2024/02/14 07:27:30;;;;;;;2.15;1.92;;;9.20;99.90;;;;;;4923182;28;20031;-77
2024/02/14 07:29:56;;;;;;;2.35;2.00;;;9.30;99.90;;;;;;4922806;28;20394;-77
2024/02/14 07:32:21;;;;;;;2.83;1.60;;;9.30;99.90;;;;;;4910785;28;20042;-77
2024/02/14 07:34:47;;;;;;;4.00;2.35;;;9.30;99.90;;;;;;4900115;28;20059;-78
2024/02/14 07:37:14;;;;;;;5.55;2.50;;;9.30;99.90;;;;;;4937649;28;20054;-77
2024/02/14 07:39:41;;;;;;;5.45;1.88;;;9.30;99.90;;;;;;4922169;28;20078;-77
2024/02/14 07:42:07;;;;;;;3.47;2.45;;;9.40;99.90;;;;;;4922989;28;20479;-76
2024/02/14 07:44:32;;;;;;;1.65;1.55;;;9.30;99.90;;;;;;4925089;28;20082;-76
2024/02/14 07:46:58;;;;;;;3.25;2.60;;;9.30;99.90;;;;;;4909708;28;20268;-77
2024/02/14 07:49:26;;;;;;;5.55;2.97;;;9.30;99.90;;;;;;4916834;28;20043;-75
2024/02/14 07:51:52;;;;;;;3.15;1.83;;;9.30;99.90;;;;;;4928758;28;20046;-77
2024/02/14 07:54:19;;;;;;;4.88;2.13;;;9.30;99.90;;;;;;4923393;28;20039;-76
2024/02/14 07:56:44;;;;;;;1.73;1.20;;;9.40;99.90;;;;;;4926984;28;20275;-76
2024/02/14 07:59:10;;;;;;;3.55;2.00;;;9.40;99.90;;;;;;4910962;29;20485;-76
2024/02/14 08:01:36;;;;;;;3.50;2.13;;;9.40;99.90;;;;;;4909525;28;20043;-78
2024/02/14 08:04:01;;;;;;;7.07;3.45;;;9.40;99.90;;;;;;4943034;28;20094;-77
2024/02/14 08:06:27;;;;;;;5.40;3.33;;;9.40;99.90;;;;;;4925358;28;20027;-77
2024/02/14 08:08:57;;;;;;;6.88;2.95;;;9.40;99.90;;;;;;4939210;28;20076;-77
2024/02/14 08:11:22;;;;;;;5.07;2.00;;;9.40;99.90;;;;;;4909435;28;20484;-77
2024/02/14 08:13:48;;;;;;;3.08;1.80;;;9.40;99.90;;;;;;4926576;28;20038;-76
2024/02/14 08:16:14;;;;;;;1.92;1.27;;;9.40;99.90;;;;;;4908328;28;20416;-77
2024/02/14 08:18:39;;;;;;;5.97;1.92;;;9.40;99.90;;;;;;4926919;28;20040;-77
2024/02/14 08:21:06;;;;;;;4.00;2.03;;;9.50;99.90;;;;;;4924301;28;20039;-78
2024/02/14 08:23:32;;;;;;;1.95;0.85;;;9.50;99.90;;;;;;4923804;28;20532;-77
2024/02/14 08:25:57;;;;;;;3.20;1.90;;;9.50;99.90;;;;;;4909733;28;20039;-78
2024/02/14 08:28:23;;;;;;;5.85;2.97;;;9.50;99.90;;;;;;4910249;28;20478;-77
2024/02/14 08:30:48;;;;;;;3.40;1.25;;;9.50;99.90;;;;;;4927052;28;20505;-78
2024/02/14 08:33:14;;;;;;;4.97;2.65;;;9.60;99.90;;;;;;4927763;28;20594;-79
2024/02/14 08:35:40;;;;;;;1.30;1.20;;;9.50;99.90;;;;;;4910633;28;20034;-79
2024/02/14 08:38:06;;;;;;;5.25;2.22;;;9.60;99.90;;;;;;4939768;28;20544;-79
2024/02/14 08:40:32;;;;;;;2.70;1.60;;;9.60;99.90;;;;;;4922296;28;20047;-79
2024/02/14 08:42:59;;;;;;;3.45;1.67;;;9.60;99.90;;;;;;4939276;28;20361;-79
2024/02/14 08:45:25;;;;;;;3.25;1.98;;;9.60;99.90;;;;;;4912329;28;20051;-79
2024/02/14 08:47:51;;;;;;;6.78;2.88;;;9.60;99.90;;;;;;4908495;28;20036;-79
2024/02/14 08:50:17;;;;;;;3.78;1.90;;;9.70;99.90;;;;;;4942032;28;20062;-79
2024/02/14 08:52:42;;;;;;;4.90;2.60;;;9.70;99.90;;;;;;4943495;28;20041;-77
2024/02/14 08:55:14;;;;;;;2.35;1.63;;;9.80;99.90;;;;;;4937377;28;20031;-78
2024/02/14 08:57:40;;;;;;;2.53;1.55;;;9.70;99.90;;;;;;4928314;28;20043;-77
2024/02/14 09:00:07;;;;;;;7.68;2.58;;;9.70;99.90;;;;;;4925243;28;20051;-77
2024/02/14 09:02:34;;;;;;;4.47;1.67;;;9.70;99.90;;;;;;4917213;28;20512;-77
2024/02/14 09:05:01;;;;;;;5.05;2.00;;;9.80;99.90;;;;;;4926304;28;20127;-77
2024/02/14 09:07:26;;;;;;;2.10;1.70;;;9.80;99.90;;;;;;4925621;28;20065;-77
2024/02/14 09:09:52;;;;;;;2.53;1.77;;;9.80;99.90;;;;;;4923420;28;20541;-78
2024/02/14 09:12:20;;;;;;;4.35;2.30;;;9.80;99.90;;;;;;4911606;28;20023;-78
2024/02/14 09:14:46;;;;;;;5.07;2.90;;;9.90;99.90;;;;;;4940191;28;20118;-78
2024/02/14 09:17:12;;;;;;;3.47;2.10;;;9.90;99.90;;;;;;4941029;28;20126;-78
2024/02/14 09:19:37;;;;;;;4.18;2.00;;;9.90;99.90;;;;;;4925914;28;20043;-77
2024/02/14 09:22:06;;;;;;;3.08;2.28;;;9.90;99.90;;;;;;4921710;28;20045;-77
2024/02/14 09:24:32;;;;;;;3.60;2.17;;;10.00;99.90;;;;;;4922609;28;20425;-77
2024/02/14 09:27:02;;;;;;;3.10;2.50;;;10.00;99.90;;;;;;4940280;28;20035;-77
2024/02/14 09:29:28;;;;;;;6.97;2.40;;;10.00;99.90;;;;;;4909158;28;20119;-77
2024/02/14 09:31:54;;;;;;;5.38;2.38;;;10.10;99.90;;;;;;4904495;28;20584;-76
2024/02/14 09:34:20;;;;;;;10.10;2.85;;;10.10;99.90;;;;;;4937211;28;20032;-76
2024/02/14 09:36:49;;;;;;;1.02;0.80;;;10.10;99.90;;;;;;4922598;28;20552;-76
2024/02/14 09:39:17;;;;;;;4.43;2.47;;;10.10;99.90;;;;;;4906158;28;20027;-76
2024/02/14 09:41:43;;;;;;;5.40;2.33;;;10.10;99.90;;;;;;4924620;28;20035;-76
2024/02/14 09:44:08;;;;;;;7.05;3.08;;;10.10;99.90;;;;;;4906009;28;20431;-76
2024/02/14 09:46:35;;;;;;;5.43;2.72;;;10.10;99.90;;;;;;4923855;28;20043;-77
2024/02/14 09:49:01;;;;;;;1.70;1.45;;;10.10;99.90;;;;;;4906437;28;20511;-76
2024/02/14 09:51:26;;;;;;;3.03;2.60;;;10.10;99.90;;;;;;4920405;28;20039;-75
2024/02/14 09:53:54;;;;;;;6.82;2.80;;;10.10;99.90;;;;;;4922588;28;20054;-76
2024/02/14 09:56:22;;;;;;;3.92;1.65;;;10.20;99.90;;;;;;4905823;28;20031;-77
2024/02/14 09:58:55;;;;;;;5.20;1.83;;;10.20;99.90;;;;;;4919941;28;20043;-76
2024/02/14 10:01:23;;;;;;;4.35;2.78;;;10.10;99.90;;;;;;4904835;28;20039;-77
2024/02/14 10:03:49;;;;;;;3.45;2.70;;;10.20;99.90;;;;;;4939980;28;20492;-77
2024/02/14 10:06:15;;;;;;;9.88;3.50;;;10.20;99.90;;;;;;4925944;28;20035;-77
2024/02/14 10:08:41;;;;;;;9.57;3.55;;;10.20;99.90;;;;;;4906156;28;20039;-78
2024/02/14 10:11:08;;;;;;;5.50;4.13;;;10.20;99.90;;;;;;4923493;28;20130;-77
2024/02/14 10:13:34;;;;;;;7.90;3.50;;;10.30;99.90;;;;;;4937066;28;20028;-77
2024/02/14 10:15:59;;;;;;;5.15;3.15;;;10.30;99.90;;;;;;4921130;28;20122;-77
2024/02/14 10:18:26;;;;;;;6.55;4.30;;;10.30;99.90;;;;;;4919161;28;20123;-77
2024/02/14 10:20:53;;;;;;;5.75;4.10;;;10.30;99.90;;;;;;4920902;28;20044;-77
2024/02/14 10:23:19;;;;;;;4.25;2.13;;;10.30;99.90;;;;;;4910684;28;20035;-77
2024/02/14 10:25:45;;;;;;;8.07;4.03;;;10.30;99.90;;;;;;4906949;28;20034;-77
2024/02/14 10:28:10;;;;;;;4.68;3.67;;;10.40;99.90;;;;;;4905669;28;20031;-77
2024/02/14 10:30:38;;;;;;;5.70;3.90;;;10.40;99.90;;;;;;4937744;28;20039;-77
2024/02/14 10:33:04;;;;;;;9.02;4.15;;;10.40;99.90;;;;;;4921299;28;20213;-79
2024/02/14 10:35:31;;;;;;;6.53;3.67;;;10.40;99.90;;;;;;4923209;28;20050;-80
2024/02/14 10:38:01;;;;;;;4.60;3.72;;;10.40;99.90;;;;;;4909158;28;22101;-79
2024/02/14 10:40:32;;;;;;;6.70;3.55;;;10.40;99.90;;;;;;4921004;28;20047;-79
2024/02/14 10:42:58;;;;;;;4.35;2.63;;;10.40;99.90;;;;;;4921768;28;20040;-79
2024/02/14 10:45:25;;;;;;;4.30;3.05;;;10.40;99.90;;;;;;4921940;28;20035;-78
2024/02/14 10:47:51;;;;;;;3.45;2.60;;;10.40;99.90;;;;;;4918788;28;20497;-78
2024/02/14 10:50:16;;;;;;;5.93;2.83;;;10.40;99.90;;;;;;4903468;28;20049;-78
2024/02/14 10:52:43;;;;;;;5.53;2.33;;;10.40;99.90;;;;;;4903525;28;20499;-79
2024/02/14 10:55:09;;;;;;;6.40;3.00;;;10.40;99.90;;;;;;4904324;28;20031;-78
2024/02/14 10:57:34;;;;;;;9.00;3.47;;;10.40;99.90;;;;;;4921317;28;20106;-80
2024/02/14 11:00:03;;;;;;;3.40;2.60;;;10.50;99.90;;;;;;4905667;28;20043;-78
2024/02/14 11:02:30;;;;;;;6.30;2.70;;;10.50;99.90;;;;;;4920557;28;20102;-79
2024/02/14 11:04:56;;;;;;;4.05;2.47;;;10.50;99.90;;;;;;4910329;28;20397;-79
2024/02/14 11:07:25;;;;;;;6.63;2.30;;;10.50;99.90;;;;;;4921546;28;20031;-79
2024/02/14 11:10:07;;;;;;;4.78;2.33;;;10.40;99.90;;;;;;4933993;28;20079;-80
2024/02/14 11:12:36;;;;;;;4.43;2.58;;;10.50;99.90;;;;;;4926995;28;20096;-78
2024/02/14 11:15:19;;;;;;;4.43;2.25;;;10.50;99.90;;;;;;4923054;28;20027;-79
2024/02/14 11:17:45;;;;;;;6.13;2.65;;;10.50;99.90;;;;;;4910142;28;20112;-79
2024/02/14 11:20:17;;;;;;;3.00;2.17;;;10.50;99.90;;;;;;4944843;28;20069;-78
2024/02/14 11:23:10;;;;;;;5.60;2.15;;;10.50;99.90;;;;;;4937722;28;20039;-78
2024/02/14 11:25:36;;;;;;;3.80;1.65;;;10.50;99.90;;;;;;4924331;28;20674;-79
2024/02/14 11:28:21;;;;;;;3.45;2.10;;;10.50;99.90;;;;;;4923910;28;20151;-78
2024/02/14 11:30:46;;;;;;;1.73;1.60;;;10.60;99.90;;;;;;4942262;28;20436;-78
2024/02/14 11:33:23;;;;;;;4.22;2.33;;;10.60;99.90;;;;;;4927995;28;20519;-78
2024/02/14 11:35:51;;;;;;;6.20;2.55;;;10.60;99.90;;;;;;4926001;28;20039;-79
2024/02/14 11:38:17;;;;;;;3.20;1.73;;;10.60;99.90;;;;;;4905286;28;20035;-78
2024/02/14 11:40:43;;;;;;;7.18;2.78;;;10.60;99.90;;;;;;4929795;28;20318;-78
2024/02/14 11:43:16;;;;;;;2.35;1.85;;;10.60;99.90;;;;;;4927833;28;20074;-79
2024/02/14 11:45:46;;;;;;;6.55;3.08;;;10.70;99.90;;;;;;4918053;28;20039;-79
2024/02/14 11:48:12;;;;;;;2.60;1.60;;;10.60;99.90;;;;;;4909505;28;20054;-79
2024/02/14 11:50:41;;;;;;;6.15;2.13;;;10.70;99.90;;;;;;4912300;28;20454;-78
2024/02/14 11:53:10;;;;;;;5.05;2.33;;;10.70;99.90;;;;;;4921701;28;20212;-79
2024/02/14 11:55:37;;;;;;;6.15;2.08;;;10.70;99.90;;;;;;4913400;28;20028;-79
2024/02/14 11:58:07;;;;;;;7.72;2.08;;;10.80;99.90;;;;;;4928722;28;20131;-79
2024/02/14 12:00:33;;;;;;;2.25;1.63;;;10.80;99.90;;;;;;4937182;28;20130;-77
2024/02/14 12:02:58;;;;;;;3.13;1.77;;;10.80;99.90;;;;;;4926947;28;20039;-79
2024/02/14 12:05:24;;;;;;;5.85;1.80;;;10.80;99.90;;;;;;4922106;28;20051;-79
2024/02/14 12:07:50;;;;;;;7.38;2.47;;;10.80;99.90;;;;;;4924133;28;20407;-79
2024/02/14 12:10:17;;;;;;;2.03;1.10;;;10.80;99.90;;;;;;4940127;28;20426;-79
2024/02/14 12:12:46;;;;;;;3.20;1.90;;;10.80;99.90;;;;;;4927420;28;20437;-79
2024/02/14 12:15:13;;;;;;;5.35;1.80;;;10.90;99.90;;;;;;4926674;28;20035;-79
2024/02/14 12:17:39;;;;;;;5.75;2.38;;;10.90;99.90;;;;;;4916321;28;20098;-80
2024/02/14 12:20:10;;;;;;;8.55;1.90;;;10.90;99.90;;;;;;4930178;28;20039;-79
2024/02/14 12:22:37;;;;;;;4.13;1.52;;;11.00;99.90;;;;;;4924627;28;20370;-78
2024/02/14 12:25:04;;;;;;;6.82;2.00;;;11.10;99.90;;;;;;4923663;28;20043;-79
2024/02/14 12:27:34;;;;;;;4.57;1.85;;;11.10;99.90;;;;;;4956957;28;20070;-78
2024/02/14 12:30:06;;;;;;;5.68;2.00;;;11.10;99.90;;;;;;4936865;28;20049;-78
2024/02/14 12:32:32;;;;;;;3.92;1.65;;;11.10;99.90;;;;;;4924150;28;20275;-78
2024/02/14 12:34:58;;;;;;;6.90;1.80;;;11.10;99.90;;;;;;4928909;28;20494;-78
2024/02/14 12:38:01;;;;;;;4.22;2.38;;;11.10;99.90;;;;;;4915927;28;20039;-78
2024/02/14 12:40:41;;;;;;;4.85;1.60;;;11.10;99.90;;;;;;4925522;28;20048;-77
2024/02/14 12:43:08;;;;;;;7.85;1.90;;;11.30;99.90;;;;;;4913033;28;20026;-78
2024/02/14 12:45:34;;;;;;;5.63;1.60;;;11.10;99.90;;;;;;4929715;28;20028;-78
2024/02/14 12:48:00;;;;;;;3.33;1.67;;;11.20;99.90;;;;;;4924045;28;20035;-78
2024/02/14 12:50:26;;;;;;;5.57;2.38;;;11.20;99.90;;;;;;4938908;28;20039;-78
2024/02/14 12:52:51;;;;;;;4.35;1.48;;;11.20;99.90;;;;;;4910860;28;20516;-78